Data for 10/05/2007

Time Sea-Level Adjusted Pressure Absolute Pressure Temperature Relative Humidity Dew Point   
(mb) (inHg) (mb) (inHg) (C) (F) (%) (C) (F)
00:05 1009 29.8 839 24.78 5.3 41.6 84 2.8 37.1
00:10 1009 29.8 839 24.78 5.2 41.4 85 3 37.3
00:15 1009 29.8 838 24.75 5.1 41.2 85 2.8 37
00:20 1009 29.8 838 24.75 5 41.1 85 2.7 36.9
00:25 1009 29.8 838 24.75 5 41 86 2.8 37.1
00:30 1009 29.8 839 24.78 4.9 40.9 86 2.8 37.1
00:35 1009 29.8 839 24.78 4.9 40.8 87 2.9 37.3
00:40 1010 29.83 839 24.78 4.9 40.8 88 3 37.4
00:45 1010 29.83 839 24.78 4.8 40.7 88 3 37.4
00:50 1010 29.83 839 24.78 4.9 40.8 88 3 37.5
00:55 1010 29.83 839 24.78 4.9 40.8 88 3.1 37.6
01:00 1009 29.8 839 24.78 4.9 40.8 88 3.1 37.6
01:05 1009 29.8 839 24.78 4.9 40.8 89 3.2 37.8
01:10 1009 29.8 839 24.78 4.9 40.7 89 3.2 37.7
01:15 1009 29.8 838 24.75 4.8 40.7 90 3.3 37.9
01:20 1009 29.8 838 24.75 4.8 40.6 90 3.3 37.9
01:25 1009 29.8 838 24.75 4.7 40.4 91 3.3 37.9
01:30 1009 29.8 838 24.75 4.6 40.3 90 3.2 37.7
01:35 1009 29.8 838 24.75 4.6 40.4 90 3.2 37.7
01:40 1010 29.83 839 24.78 4.7 40.4 90 3.1 37.6
01:45 1010 29.83 839 24.78 4.7 40.4 89 3.1 37.5
01:50 1010 29.83 839 24.78 4.7 40.5 89 3 37.4
01:55 1010 29.83 839 24.78 4.7 40.5 89 3 37.5
02:00 1010 29.83 839 24.78 4.7 40.5 89 3 37.5
02:05 1010 29.83 839 24.78 4.8 40.6 89 3.1 37.6
02:10 1010 29.83 839 24.78 4.7 40.5 89 3.1 37.5
02:15 1010 29.83 839 24.78 4.7 40.5 89 3.1 37.6
02:20 1010 29.83 839 24.78 4.7 40.4 90 3.1 37.7
02:25 1009 29.8 839 24.78 4.7 40.4 90 3.2 37.7
02:30 1009 29.8 839 24.78 4.7 40.4 90 3.1 37.6
02:35 1009 29.8 839 24.78 4.6 40.3 90 3.2 37.7
02:40 1009 29.8 839 24.78 4.6 40.3 90 3.1 37.5
02:45 1009 29.8 839 24.78 4.6 40.3 89 3 37.4
02:50 1010 29.83 839 24.78 4.6 40.3 89 3 37.4
02:55 1009 29.8 839 24.78 4.6 40.3 90 3.1 37.5
03:00 1009 29.8 839 24.78 4.5 40.1 90 3 37.3
03:05 1009 29.8 838 24.75 4.5 40 90 3 37.4
03:10 1009 29.8 838 24.75 4.4 39.9 90 2.9 37.1
03:15 1009 29.8 838 24.75 4.4 39.9 89 2.7 36.8
03:20 1009 29.8 838 24.75 4.4 39.9 89 2.7 36.9
03:25 1009 29.8 838 24.75 4.4 39.8 89 2.6 36.7
03:30 1009 29.8 838 24.75 4.3 39.8 90 2.8 37
03:35 1009 29.8 838 24.75 4.3 39.8 89 2.7 36.8
03:40 1009 29.8 838 24.75 4.3 39.8 89 2.7 36.8
03:45 1009 29.8 838 24.75 4.3 39.8 88 2.6 36.6
03:50 1009 29.8 838 24.75 4.2 39.6 89 2.6 36.7
03:55 1009 29.8 838 24.75 4.2 39.5 88 2.4 36.4
04:00 1009 29.8 838 24.75 4.2 39.5 89 2.5 36.5
04:05 1009 29.8 839 24.78 4.1 39.4 88 2.4 36.3
04:10 1009 29.8 838 24.75 4.1 39.4 89 2.4 36.3
04:15 1009 29.8 838 24.75 4 39.3 88 2.2 35.9
04:20 1009 29.8 838 24.75 4 39.2 89 2.3 36.1
04:25 1009 29.8 838 24.75 4 39.1 87 2.1 35.7
04:30 1009 29.8 838 24.75 3.9 39 88 2.1 35.8
04:35 1009 29.8 838 24.75 3.8 38.9 88 2.1 35.7
04:40 1009 29.8 838 24.75 3.7 38.7 90 2.2 35.9
04:45 1009 29.8 838 24.75 3.6 38.5 90 2.1 35.8
04:50 1009 29.8 838 24.75 3.5 38.4 90 2.1 35.8
04:55 1009 29.8 838 24.75 3.4 38.2 91 2.1 35.7
05:00 1009 29.8 838 24.75 3.4 38.1 91 2.1 35.7
05:05 1009 29.8 838 24.75 3.3 37.9 91 2 35.5
05:10 1009 29.8 838 24.75 3.3 37.9 91 2 35.5
05:15 1009 29.8 838 24.75 3.3 37.9 91 2 35.5
05:20 1009 29.8 838 24.75 3.3 37.9 91 1.9 35.5
05:25 1009 29.8 838 24.75 3.2 37.8 91 2 35.6
05:30 1009 29.8 838 24.75 3.2 37.8 92 2 35.7
05:35 1009 29.8 838 24.75 3.2 37.8 91 1.9 35.4
05:40 1009 29.8 838 24.75 3.3 37.9 91 1.9 35.3
05:45 1009 29.8 838 24.75 3.2 37.8 92 2 35.6
05:50 1009 29.8 838 24.75 3.2 37.8 92 2 35.6
05:55 1009 29.8 838 24.75 3.2 37.8 92 2 35.6
06:00 1009 29.8 838 24.75 3.2 37.8 91 1.9 35.4
06:05 1009 29.8 838 24.75 3.2 37.8 91 1.9 35.5
06:10 1009 29.8 838 24.75 3.2 37.8 92 2 35.6
06:15 1009 29.8 838 24.75 3.2 37.8 92 2 35.5
06:20 1009 29.8 838 24.75 3.2 37.7 93 2.1 35.7
06:25 1009 29.8 838 24.75 3.1 37.6 93 2.1 35.7
06:30 1009 29.8 838 24.75 3.1 37.6 93 2.1 35.7
06:35 1009 29.8 838 24.75 3.1 37.6 93 2.1 35.7
06:40 1009 29.8 838 24.75 3.1 37.6 93 2.1 35.8
06:45 1009 29.8 838 24.75 3.1 37.6 93 2.1 35.8
06:50 1009 29.8 838 24.75 3 37.5 94 2.1 35.8
06:55 1009 29.8 838 24.75 3 37.5 94 2.1 35.8
07:00 1009 29.8 838 24.75 3.1 37.5 94 2.2 35.9
07:05 1009 29.8 838 24.75 3 37.4 93 2 35.7
07:10 1009 29.8 838 24.75 3 37.4 93 2 35.5
07:15 1009 29.8 838 24.75 3 37.4 93 2 35.5
07:20 1009 29.8 838 24.75 3 37.4 92 1.8 35.3
07:25 1009 29.8 838 24.75 3 37.4 92 1.9 35.4
07:30 1009 29.8 838 24.75 3 37.3 93 1.9 35.5
07:35 1009 29.8 838 24.75 2.9 37.3 93 1.9 35.4
07:40 1009 29.8 838 24.75 3 37.3 92 1.8 35.3
07:45 1009 29.8 838 24.75 3 37.3 93 1.9 35.4
07:50 1009 29.8 838 24.75 3 37.4 92 1.8 35.3
07:55 1009 29.8 838 24.75 3 37.5 93 2 35.6
08:00 1009 29.8 838 24.75 3 37.5 93 2 35.7
08:05 1009 29.8 838 24.75 2.9 37.3 94 2 35.7
08:10 1009 29.8 838 24.75 2.9 37.3 94 2 35.6
08:15 1009 29.8 838 24.75 2.9 37.2 94 2 35.6
08:20 1009 29.8 838 24.75 2.9 37.3 94 2.1 35.8
08:25 1009 29.8 838 24.75 2.9 37.2 95 2.1 35.8
08:30 1009 29.8 839 24.78 2.9 37.2 95 2.1 35.8
08:35 1009 29.8 839 24.78 2.9 37.2 96 2.3 36.1
08:40 1009 29.8 839 24.78 3 37.3 95 2.2 35.9
08:45 1009 29.8 839 24.78 3 37.3 94 2 35.6
08:50 1010 29.83 839 24.78 3 37.3 94 2.1 35.7
08:55 1010 29.83 839 24.78 3.1 37.5 90 1.6 34.9
09:00 1009 29.8 839 24.78 3.2 37.7 90 1.7 35
09:05 1009 29.8 839 24.78 3.4 38.1 92 2.2 36
09:10 1009 29.8 839 24.78 3.4 38 90 1.9 35.5
09:15 1009 29.8 839 24.78 3.1 37.6 91 1.8 35.2
09:20 1010 29.83 839 24.78 3 37.4 92 1.8 35.3
09:25 1010 29.83 839 24.78 3 37.4 91 1.6 34.9
09:30 1010 29.83 839 24.78 2.9 37.2 91 1.6 34.8
09:35 1010 29.83 839 24.78 2.7 36.9 92 1.5 34.8
09:40 1010 29.83 839 24.78 2.8 37 92 1.6 34.9
09:45 1010 29.83 839 24.78 2.9 37.2 91 1.6 34.9
09:50 1010 29.83 839 24.78 2.8 37 92 1.6 34.9
09:55 1010 29.83 839 24.78 2.6 36.7 92 1.5 34.7
10:00 1010 29.83 839 24.78 2.4 36.3 93 1.3 34.4
10:05 1010 29.83 839 24.78 2.5 36.5 92 1.3 34.3
10:10 1010 29.83 839 24.78 2.3 36.2 92 1.1 34
10:15 1010 29.83 839 24.78 2.3 36.2 94 1.4 34.5
10:20 1010 29.83 839 24.78 2.5 36.5 92 1.3 34.4
10:25 1010 29.83 839 24.78 2.5 36.5 91 1.2 34.1
10:30 1010 29.83 839 24.78 2.4 36.4 93 1.4 34.6
10:35 1010 29.83 839 24.78 2.6 36.7 90 1.2 34.1
10:40 1010 29.83 839 24.78 2.5 36.4 93 1.5 34.7
10:45 1010 29.83 839 24.78 2.6 36.6 91 1.3 34.3
10:50 1010 29.83 839 24.78 2.5 36.5 90 1.1 33.9
10:55 1010 29.83 839 24.78 2.4 36.4 91 1.2 34.1
11:00 1010 29.83 839 24.78 2.5 36.5 91 1.2 34.1
11:05 1010 29.83 839 24.78 2.4 36.3 91 1.1 33.9
11:10 1010 29.83 839 24.78 2.2 36 92 1 33.9
11:15 1010 29.83 839 24.78 2.3 36.2 92 1.2 34.2
11:20 1010 29.83 839 24.78 2.5 36.5 92 1.4 34.4
11:25 1010 29.83 839 24.78 2.5 36.5 92 1.3 34.4
11:30 1010 29.83 839 24.78 2.6 36.7 92 1.5 34.7
11:35 1010 29.83 839 24.78 2.6 36.7 93 1.5 34.8
11:40 1010 29.83 839 24.78 2.7 36.8 91 1.3 34.3
11:45 1010 29.83 839 24.78 2.4 36.3 91 1.1 33.9
11:50 1010 29.83 839 24.78 2.5 36.5 94 1.6 34.9
11:55 1010 29.83 839 24.78 2.9 37.2 91 1.6 34.8
12:00 1010 29.83 839 24.78 3 37.4 89 1.4 34.6
12:05 1010 29.83 839 24.78 3 37.4 89 1.4 34.4
12:10 1010 29.83 839 24.78 2.9 37.1 92 1.7 35
12:15 1010 29.83 839 24.78 2.9 37.2 92 1.7 35.1
12:20 1010 29.83 839 24.78 2.9 37.2 91 1.6 34.8
12:25 1010 29.83 839 24.78 2.8 37 93 1.7 35.1
12:30 1010 29.83 839 24.78 2.8 37 93 1.7 35.1
12:35 1010 29.83 839 24.78 3 37.4 93 2 35.5
12:40 1010 29.83 839 24.78 3 37.5 92 1.9 35.5
12:45 1010 29.83 839 24.78 3 37.4 92 1.8 35.3
12:50 1010 29.83 840 24.81 3.1 37.6 93 2 35.6
12:55 1010 29.83 840 24.81 3.2 37.7 92 2 35.6
13:00 1010 29.83 840 24.81 3.2 37.8 92 2 35.6
13:05 1011 29.85 840 24.81 3.3 38 92 2.2 35.9
13:10 1011 29.85 840 24.81 3.4 38.2 93 2.4 36.4
13:15 1010 29.83 840 24.81 3.5 38.3 92 2.3 36.1
13:20 1010 29.83 840 24.81 3.4 38.2 93 2.3 36.2
13:25 1011 29.85 840 24.81 3.4 38 91 2 35.6
13:30 1011 29.85 840 24.81 3.3 37.9 92 2.2 35.9
13:35 1011 29.85 840 24.81 3.2 37.8 93 2.2 35.9
13:40 1011 29.85 840 24.81 3.3 37.9 93 2.2 36
13:45 1011 29.85 840 24.81 3.4 38.1 94 2.4 36.4
13:50 1011 29.85 840 24.81 3.4 38.1 92 2.3 36.1
13:55 1011 29.85 840 24.81 3.4 38.1 91 2.1 35.8
14:00 1011 29.85 840 24.81 3.3 37.9 92 2.1 35.8
14:05 1011 29.85 840 24.81 3.3 37.9 93 2.2 36
14:10 1011 29.85 840 24.81 3.3 37.9 93 2.3 36.1
14:15 1011 29.85 840 24.81 3.3 38 93 2.3 36.1
14:20 1011 29.85 840 24.81 3.4 38.2 90 2 35.6
14:25 1011 29.85 840 24.81 3.3 38 92 2.2 35.9
14:30 1011 29.85 840 24.81 3.4 38.2 90 2 35.6
14:35 1011 29.85 840 24.81 3.4 38 92 2.2 36
14:40 1011 29.85 840 24.81 3.4 38.1 90 1.9 35.4
14:45 1011 29.85 840 24.81 3.3 38 90 1.8 35.2
14:50 1011 29.85 840 24.81 3.3 38 90 1.9 35.4
14:55 1011 29.85 840 24.81 3.4 38.2 90 2 35.5
15:00 1011 29.85 840 24.81 3.6 38.5 92 2.4 36.3
15:05 1011 29.85 840 24.81 3.8 38.8 90 2.3 36.2
15:10 1011 29.85 840 24.81 3.8 38.8 90 2.2 36
15:15 1011 29.85 840 24.81 3.6 38.5 90 2.1 35.7
15:20 1011 29.85 840 24.81 3.3 37.9 90 1.8 35.2
15:25 1011 29.85 840 24.81 3.1 37.6 91 1.8 35.3
15:30 1011 29.85 840 24.81 3.5 38.2 88 1.7 35.1
15:35 1011 29.85 841 24.83 3.3 38 89 1.7 35.1
15:40 1011 29.85 841 24.83 3.4 38.2 89 1.7 35.1
15:45 1011 29.85 841 24.83 3.6 38.4 88 1.8 35.2
15:50 1011 29.85 841 24.83 3.8 38.8 87 1.8 35.3
15:55 1012 29.88 841 24.83 3.9 39 87 1.9 35.5
16:00 1011 29.85 841 24.83 3.5 38.3 90 2 35.6
16:05 1011 29.85 841 24.83 3.7 38.6 89 2 35.6
16:10 1011 29.85 841 24.83 3.8 38.8 88 1.9 35.4
16:15 1012 29.88 841 24.83 3.7 38.7 87 1.7 35.1
16:20 1012 29.88 841 24.83 3.3 38 88 1.5 34.6
16:25 1012 29.88 841 24.83 3.1 37.6 90 1.7 35.1
16:30 1012 29.88 841 24.83 3.3 38 89 1.6 34.9
16:35 1012 29.88 841 24.83 3.5 38.3 88 1.8 35.2
16:40 1012 29.88 841 24.83 3.5 38.4 88 1.8 35.2
16:45 1012 29.88 841 24.83 3.8 38.8 89 2.1 35.8
16:50 1012 29.88 841 24.83 3.8 38.9 90 2.3 36.1
16:55 1012 29.88 841 24.83 3.7 38.6 89 2 35.5
17:00 1012 29.88 841 24.83 3.6 38.5 87 1.6 34.8
17:05 1012 29.88 841 24.83 3.5 38.4 90 2.1 35.8
17:10 1012 29.88 841 24.83 3.6 38.5 89 1.9 35.4
17:15 1012 29.88 841 24.83 3.4 38.2 90 1.9 35.4
17:20 1012 29.88 841 24.83 3.4 38.1 90 1.9 35.4
17:25 1012 29.88 841 24.83 3.5 38.3 91 2.2 35.9
17:30 1012 29.88 841 24.83 3.8 38.9 89 2.1 35.9
17:35 1012 29.88 841 24.83 3.8 38.9 86 1.8 35.2
17:40 1012 29.88 841 24.83 3.4 38.2 90 1.9 35.5
17:45 1012 29.88 841 24.83 3.4 38 90 1.9 35.5
17:50 1012 29.88 841 24.83 3.2 37.7 92 2 35.7
17:55 1012 29.88 841 24.83 3.1 37.5 91 1.8 35.2
18:00 1012 29.88 841 24.83 3.1 37.6 91 1.8 35.2
18:05 1012 29.88 842 24.86 3.2 37.7 90 1.7 35.1
18:10 1012 29.88 842 24.86 3.2 37.8 91 1.9 35.5
18:15 1012 29.88 841 24.83 3.1 37.6 92 2 35.6
18:20 1012 29.88 842 24.86 2.7 36.9 94 1.8 35.3
18:25 1012 29.88 841 24.83 2.7 36.9 92 1.6 34.8
18:30 1012 29.88 842 24.86 2.7 36.9 92 1.6 34.8
18:35 1013 29.91 842 24.86 2.8 37.1 92 1.6 34.9
18:40 1012 29.88 842 24.86 2.9 37.3 92 1.8 35.2
18:45 1012 29.88 842 24.86 2.9 37.2 92 1.7 35
18:50 1012 29.88 842 24.86 2.9 37.3 92 1.8 35.2
18:55 1012 29.88 842 24.86 3 37.5 91 1.7 35.1
19:00 1013 29.91 842 24.86 3.1 37.6 91 1.7 35.1
19:05 1013 29.91 842 24.86 3 37.4 93 2 35.7
19:10 1013 29.91 842 24.86 2.7 36.9 94 1.9 35.4
19:15 1013 29.91 842 24.86 2.5 36.4 95 1.8 35.2
19:20 1013 29.91 842 24.86 2.5 36.4 95 1.8 35.2
19:25 1013 29.91 842 24.86 2.5 36.4 96 1.9 35.4
19:30 1013 29.91 842 24.86 2.5 36.6 95 1.8 35.3
19:35 1013 29.91 842 24.86 2.7 36.8 94 1.8 35.3
19:40 1013 29.91 842 24.86 2.9 37.1 94 2 35.5
19:45 1013 29.91 842 24.86 2.9 37.2 93 1.9 35.5
19:50 1013 29.91 842 24.86 2.9 37.2 95 2.1 35.8
19:55 1013 29.91 842 24.86 2.9 37.2 95 2.2 36
20:00 1013 29.91 842 24.86 2.9 37.2 96 2.2 36
20:05 1013 29.91 842 24.86 2.8 37 95 2 35.6
20:10 1013 29.91 842 24.86 2.6 36.7 96 2.1 35.8
20:15 1013 29.91 842 24.86 2.7 36.8 96 2.2 35.9
20:20 1013 29.91 842 24.86 2.7 36.8 96 2.1 35.8
20:25 1013 29.91 842 24.86 2.6 36.7 96 2 35.7
20:30 1013 29.91 842 24.86 2.6 36.7 97 2.1 35.8
20:35 1013 29.91 843 24.89 2.5 36.6 97 2 35.7
20:40 1013 29.91 843 24.89 2.4 36.4 96 1.9 35.4
20:45 1013 29.91 842 24.86 2.5 36.4 96 1.9 35.5
20:50 1013 29.91 842 24.86 2.6 36.7 96 2.1 35.7
20:55 1013 29.91 843 24.89 2.7 36.8 94 1.8 35.2
21:00 1013 29.91 843 24.89 2.8 37 94 2 35.6
21:05 1013 29.91 843 24.89 2.9 37.2 92 1.8 35.2
21:10 1013 29.91 843 24.89 2.9 37.2 93 1.9 35.4
21:15 1013 29.91 843 24.89 3 37.3 94 2.1 35.8
21:20 1013 29.91 843 24.89 3.1 37.5 92 1.9 35.4
21:25 1013 29.91 843 24.89 2.8 37.1 94 1.9 35.5
21:30 1013 29.91 843 24.89 2.9 37.2 93 1.8 35.3
21:35 1013 29.91 842 24.86 3 37.3 93 1.9 35.4
21:40 1013 29.91 842 24.86 2.9 37.3 93 1.9 35.4
21:45 1013 29.91 842 24.86 2.9 37.3 92 1.8 35.3
21:50 1013 29.91 842 24.86 3 37.4 91 1.7 35.1
21:55 1013 29.91 842 24.86 2.9 37.3 93 1.9 35.4
22:00 1013 29.91 842 24.86 2.9 37.3 92 1.7 35
22:05 1013 29.91 842 24.86 2.8 37 93 1.8 35.2
22:10 1013 29.91 842 24.86 2.6 36.7 92 1.4 34.5
22:15 1013 29.91 842 24.86 2.3 36.1 94 1.4 34.6
22:20 1013 29.91 842 24.86 2.3 36.1 94 1.4 34.5
22:25 1013 29.91 842 24.86 2.2 36 95 1.5 34.8
22:30 1013 29.91 842 24.86 2.1 35.9 95 1.4 34.6
22:35 1013 29.91 842 24.86 1.9 35.4 96 1.3 34.4
22:40 1013 29.91 842 24.86 1.8 35.3 96 1.2 34.2
22:45 1013 29.91 842 24.86 1.6 35 96 1.1 33.9
22:50 1013 29.91 842 24.86 1.6 34.9 97 1.1 34
22:55 1013 29.91 842 24.86 1.6 34.9 96 1.1 33.9
23:00 1013 29.91 842 24.86 1.5 34.7 97 1 33.8
23:05 1013 29.91 842 24.86 1.5 34.7 97 1.1 34
23:10 1013 29.91 842 24.86 1.6 35 96 1.1 33.9
23:15 1013 29.91 842 24.86 1.8 35.3 95 1.1 33.9
23:20 1013 29.91 842 24.86 1.8 35.2 95 1.1 34
23:25 1013 29.91 842 24.86 1.7 35.1 96 1.1 34.1
23:30 1013 29.91 842 24.86 1.8 35.2 96 1.2 34.1
23:35 1013 29.91 842 24.86 1.8 35.3 95 1.1 33.9
23:40 1013 29.91 842 24.86 1.9 35.3 94 1 33.7
23:45 1013 29.91 842 24.86 1.6 34.9 95 1 33.7
23:50 1013 29.91 842 24.86 1.6 34.8 95 0.8 33.5
23:55 1013 29.91 842 24.86 1.5 34.6 96 0.9 33.7
24:00 1013 29.91 842 24.86 1.5 34.7 96 0.9 33.6